sensor_id;sensor_type;location;lat;lon;timestamp;pressure;altitude;pressure_sealevel;temperature;humidity
39363;BME280;25088;43.238;23.110;2024-02-15T00:00:28;96991.28;;;5.63;69.19
39363;BME280;25088;43.238;23.110;2024-02-15T00:02:53;96984.84;;;5.57;69.93
39363;BME280;25088;43.238;23.110;2024-02-15T00:05:19;96994.81;;;5.63;70.18
39363;BME280;25088;43.238;23.110;2024-02-15T00:07:44;97004.00;;;5.62;70.60
39363;BME280;25088;43.238;23.110;2024-02-15T00:10:14;97000.84;;;5.65;69.35
39363;BME280;25088;43.238;23.110;2024-02-15T00:12:40;96998.38;;;5.57;68.90
39363;BME280;25088;43.238;23.110;2024-02-15T00:15:06;96997.75;;;5.55;69.32
39363;BME280;25088;43.238;23.110;2024-02-15T00:17:31;97001.09;;;5.57;68.74
39363;BME280;25088;43.238;23.110;2024-02-15T00:19:58;96995.47;;;5.52;69.21
39363;BME280;25088;43.238;23.110;2024-02-15T00:22:25;96997.75;;;5.55;69.06
39363;BME280;25088;43.238;23.110;2024-02-15T00:24:50;96985.47;;;5.46;68.93
39363;BME280;25088;43.238;23.110;2024-02-15T00:27:16;96999.81;;;5.60;68.75
39363;BME280;25088;43.238;23.110;2024-02-15T00:29:41;96988.75;;;5.61;68.04
39363;BME280;25088;43.238;23.110;2024-02-15T00:32:08;96994.59;;;5.65;67.99
39363;BME280;25088;43.238;23.110;2024-02-15T00:34:36;97003.72;;;5.77;67.77
39363;BME280;25088;43.238;23.110;2024-02-15T00:37:06;97001.41;;;5.81;67.90
39363;BME280;25088;43.238;23.110;2024-02-15T00:39:32;97003.28;;;5.80;68.40
39363;BME280;25088;43.238;23.110;2024-02-15T00:41:58;96997.44;;;5.83;68.07
39363;BME280;25088;43.238;23.110;2024-02-15T00:44:28;97004.94;;;5.88;67.07
39363;BME280;25088;43.238;23.110;2024-02-15T00:46:53;97000.56;;;5.87;67.62
39363;BME280;25088;43.238;23.110;2024-02-15T00:49:19;96993.50;;;5.79;66.95
39363;BME280;25088;43.238;23.110;2024-02-15T00:51:48;96990.81;;;5.73;67.20
39363;BME280;25088;43.238;23.110;2024-02-15T00:54:14;96990.81;;;5.73;68.13
39363;BME280;25088;43.238;23.110;2024-02-15T00:56:40;96992.06;;;5.70;68.90
39363;BME280;25088;43.238;23.110;2024-02-15T00:59:05;96977.94;;;5.55;69.20
39363;BME280;25088;43.238;23.110;2024-02-15T01:01:31;96988.78;;;5.55;68.61
39363;BME280;25088;43.238;23.110;2024-02-15T01:03:56;96975.50;;;5.33;68.63
39363;BME280;25088;43.238;23.110;2024-02-15T01:06:22;96988.63;;;5.43;69.46
39363;BME280;25088;43.238;23.110;2024-02-15T01:08:48;96992.34;;;5.42;68.61
39363;BME280;25088;43.238;23.110;2024-02-15T01:11:14;96972.38;;;5.30;68.58
39363;BME280;25088;43.238;23.110;2024-02-15T01:13:39;96988.19;;;5.46;68.49
39363;BME280;25088;43.238;23.110;2024-02-15T01:16:06;96978.63;;;5.43;68.57
39363;BME280;25088;43.238;23.110;2024-02-15T01:18:32;96979.84;;;5.41;67.63
39363;BME280;25088;43.238;23.110;2024-02-15T01:20:59;96980.91;;;5.40;66.90
39363;BME280;25088;43.238;23.110;2024-02-15T01:23:24;96995.28;;;5.40;67.38
39363;BME280;25088;43.238;23.110;2024-02-15T01:25:51;96992.16;;;5.37;67.64
39363;BME280;25088;43.238;23.110;2024-02-15T01:28:17;96990.09;;;5.26;68.96
39363;BME280;25088;43.238;23.110;2024-02-15T01:30:42;96992.00;;;5.18;68.33
39363;BME280;25088;43.238;23.110;2024-02-15T01:33:09;96990.31;;;5.24;66.87
39363;BME280;25088;43.238;23.110;2024-02-15T01:35:36;96976.56;;;5.26;65.70
39363;BME280;25088;43.238;23.110;2024-02-15T01:38:02;96985.53;;;5.33;65.23
39363;BME280;25088;43.238;23.110;2024-02-15T01:40:27;96990.53;;;5.23;68.49
39363;BME280;25088;43.238;23.110;2024-02-15T01:42:52;96985.31;;;5.14;69.67
39363;BME280;25088;43.238;23.110;2024-02-15T01:45:18;96997.59;;;5.10;70.73
39363;BME280;25088;43.238;23.110;2024-02-15T01:47:44;96993.47;;;4.95;72.69
39363;BME280;25088;43.238;23.110;2024-02-15T01:50:13;96992.44;;;4.89;73.32
39363;BME280;25088;43.238;23.110;2024-02-15T01:52:40;97000.13;;;4.79;73.85
39363;BME280;25088;43.238;23.110;2024-02-15T01:55:07;96986.16;;;4.62;73.79
39363;BME280;25088;43.238;23.110;2024-02-15T01:57:35;96990.13;;;4.59;73.69
39363;BME280;25088;43.238;23.110;2024-02-15T02:00:02;96984.72;;;4.59;73.74
39363;BME280;25088;43.238;23.110;2024-02-15T02:02:31;96984.94;;;4.58;73.07
39363;BME280;25088;43.238;23.110;2024-02-15T02:04:59;96997.84;;;4.62;72.21
39363;BME280;25088;43.238;23.110;2024-02-15T02:07:24;96998.03;;;4.54;73.09
39363;BME280;25088;43.238;23.110;2024-02-15T02:09:51;96980.50;;;4.37;72.98
39363;BME280;25088;43.238;23.110;2024-02-15T02:12:16;96981.34;;;4.37;73.64
39363;BME280;25088;43.238;23.110;2024-02-15T02:14:43;97003.44;;;4.48;72.83
39363;BME280;25088;43.238;23.110;2024-02-15T02:17:15;97003.63;;;4.46;73.34
39363;BME280;25088;43.238;23.110;2024-02-15T02:19:44;97007.09;;;4.27;73.97
39363;BME280;25088;43.238;23.110;2024-02-15T02:22:09;97001.91;;;4.25;73.93
39363;BME280;25088;43.238;23.110;2024-02-15T02:24:44;97010.41;;;4.15;74.64
39363;BME280;25088;43.238;23.110;2024-02-15T02:27:13;97013.56;;;4.19;74.38
39363;BME280;25088;43.238;23.110;2024-02-15T02:29:43;96991.28;;;4.10;74.13
39363;BME280;25088;43.238;23.110;2024-02-15T02:32:11;97008.69;;;3.95;76.21
39363;BME280;25088;43.238;23.110;2024-02-15T02:34:38;97006.13;;;3.80;78.80
39363;BME280;25088;43.238;23.110;2024-02-15T02:37:03;97014.22;;;3.73;79.14
39363;BME280;25088;43.238;23.110;2024-02-15T02:39:31;97007.03;;;3.52;80.53
39363;BME280;25088;43.238;23.110;2024-02-15T02:41:57;97012.84;;;3.49;81.17
39363;BME280;25088;43.238;23.110;2024-02-15T02:44:23;97001.56;;;3.39;81.74
39363;BME280;25088;43.238;23.110;2024-02-15T02:46:48;97015.00;;;3.32;81.17
39363;BME280;25088;43.238;23.110;2024-02-15T02:49:14;97006.88;;;3.26;81.67
39363;BME280;25088;43.238;23.110;2024-02-15T02:51:39;97014.34;;;3.24;81.93
39363;BME280;25088;43.238;23.110;2024-02-15T02:54:05;97015.56;;;3.21;82.38
39363;BME280;25088;43.238;23.110;2024-02-15T02:56:32;97018.25;;;3.21;81.69
39363;BME280;25088;43.238;23.110;2024-02-15T02:58:58;97023.88;;;3.20;80.91
39363;BME280;25088;43.238;23.110;2024-02-15T03:01:24;97014.47;;;3.09;81.55
39363;BME280;25088;43.238;23.110;2024-02-15T03:03:53;97027.34;;;3.14;82.09
39363;BME280;25088;43.238;23.110;2024-02-15T03:06:22;97009.41;;;2.99;81.73
39363;BME280;25088;43.238;23.110;2024-02-15T03:08:50;97025.25;;;3.09;82.24
39363;BME280;25088;43.238;23.110;2024-02-15T03:11:19;97028.72;;;3.03;82.30
39363;BME280;25088;43.238;23.110;2024-02-15T03:13:45;97032.41;;;2.95;82.54
39363;BME280;25088;43.238;23.110;2024-02-15T03:16:10;97022.97;;;2.84;83.37
39363;BME280;25088;43.238;23.110;2024-02-15T03:18:36;97029.44;;;2.90;83.31
39363;BME280;25088;43.238;23.110;2024-02-15T03:21:01;97019.38;;;2.77;84.31
39363;BME280;25088;43.238;23.110;2024-02-15T03:23:27;97010.88;;;2.74;84.12
39363;BME280;25088;43.238;23.110;2024-02-15T03:25:54;97021.91;;;2.79;84.43
39363;BME280;25088;43.238;23.110;2024-02-15T03:28:19;97026.09;;;2.88;83.74
39363;BME280;25088;43.238;23.110;2024-02-15T03:30:46;97028.38;;;2.84;83.21
39363;BME280;25088;43.238;23.110;2024-02-15T03:33:12;97019.47;;;2.63;83.65
39363;BME280;25088;43.238;23.110;2024-02-15T03:35:38;97032.81;;;2.71;84.43
39363;BME280;25088;43.238;23.110;2024-02-15T03:38:04;97031.66;;;2.58;85.35
39363;BME280;25088;43.238;23.110;2024-02-15T03:40:29;97021.59;;;2.46;85.62
39363;BME280;25088;43.238;23.110;2024-02-15T03:42:56;97029.25;;;2.64;84.90
39363;BME280;25088;43.238;23.110;2024-02-15T03:45:22;97040.13;;;2.77;84.49
39363;BME280;25088;43.238;23.110;2024-02-15T03:47:51;97035.63;;;2.63;84.98
39363;BME280;25088;43.238;23.110;2024-02-15T03:50:17;97047.16;;;2.78;83.69
39363;BME280;25088;43.238;23.110;2024-02-15T03:52:45;97041.44;;;2.88;82.83
39363;BME280;25088;43.238;23.110;2024-02-15T03:55:11;97039.53;;;2.81;82.05
39363;BME280;25088;43.238;23.110;2024-02-15T03:57:40;97042.69;;;2.85;81.90
39363;BME280;25088;43.238;23.110;2024-02-15T04:00:07;97042.81;;;2.77;82.47
39363;BME280;25088;43.238;23.110;2024-02-15T04:02:33;97025.69;;;2.63;82.71
39363;BME280;25088;43.238;23.110;2024-02-15T04:05:00;97039.88;;;2.72;82.79
39363;BME280;25088;43.238;23.110;2024-02-15T04:07:26;97043.41;;;2.72;82.82
39363;BME280;25088;43.238;23.110;2024-02-15T04:09:52;97032.34;;;2.67;82.81
39363;BME280;25088;43.238;23.110;2024-02-15T04:12:18;97040.50;;;2.52;84.17
39363;BME280;25088;43.238;23.110;2024-02-15T04:14:44;97051.06;;;2.69;82.69
39363;BME280;25088;43.238;23.110;2024-02-15T04:17:12;97039.00;;;2.65;82.31
39363;BME280;25088;43.238;23.110;2024-02-15T04:19:45;97047.75;;;2.73;82.62
39363;BME280;25088;43.238;23.110;2024-02-15T04:22:14;97036.59;;;2.76;81.54
39363;BME280;25088;43.238;23.110;2024-02-15T04:24:44;97047.28;;;2.91;80.47
39363;BME280;25088;43.238;23.110;2024-02-15T04:27:10;97039.53;;;2.81;80.84
39363;BME280;25088;43.238;23.110;2024-02-15T04:29:37;97047.91;;;2.93;79.95
39363;BME280;25088;43.238;23.110;2024-02-15T04:32:07;97053.22;;;2.80;80.65
39363;BME280;25088;43.238;23.110;2024-02-15T04:34:34;97052.88;;;2.68;81.70
39363;BME280;25088;43.238;23.110;2024-02-15T04:36:59;97022.53;;;2.38;82.00
39363;BME280;25088;43.238;23.110;2024-02-15T04:39:26;97043.03;;;2.54;82.23
39363;BME280;25088;43.238;23.110;2024-02-15T04:41:55;97058.09;;;2.48;82.61
39363;BME280;25088;43.238;23.110;2024-02-15T04:44:20;97063.63;;;2.40;82.92
39363;BME280;25088;43.238;23.110;2024-02-15T04:46:47;97062.94;;;2.38;84.07
39363;BME280;25088;43.238;23.110;2024-02-15T04:49:13;97073.09;;;2.36;83.98
39363;BME280;25088;43.238;23.110;2024-02-15T04:51:39;97078.22;;;2.31;84.30
39363;BME280;25088;43.238;23.110;2024-02-15T04:54:07;97079.00;;;2.25;85.10
39363;BME280;25088;43.238;23.110;2024-02-15T04:56:33;97072.25;;;2.14;85.10
39363;BME280;25088;43.238;23.110;2024-02-15T04:58:58;97093.88;;;2.21;85.76
39363;BME280;25088;43.238;23.110;2024-02-15T05:01:24;97060.59;;;2.14;85.10
39363;BME280;25088;43.238;23.110;2024-02-15T05:03:49;97085.41;;;2.24;83.80
39363;BME280;25088;43.238;23.110;2024-02-15T05:06:15;97082.59;;;2.32;82.98
39363;BME280;25088;43.238;23.110;2024-02-15T05:08:41;97090.66;;;2.32;84.08
39363;BME280;25088;43.238;23.110;2024-02-15T05:11:10;97086.53;;;2.15;85.41
39363;BME280;25088;43.238;23.110;2024-02-15T05:13:47;97093.69;;;2.07;86.23
39363;BME280;25088;43.238;23.110;2024-02-15T05:16:16;97096.13;;;2.02;86.65
39363;BME280;25088;43.238;23.110;2024-02-15T05:18:41;97104.84;;;2.04;87.12
39363;BME280;25088;43.238;23.110;2024-02-15T05:21:07;97106.25;;;2.00;87.47
39363;BME280;25088;43.238;23.110;2024-02-15T05:23:37;97111.63;;;2.00;87.56
39363;BME280;25088;43.238;23.110;2024-02-15T05:26:06;97098.06;;;1.94;87.35
39363;BME280;25088;43.238;23.110;2024-02-15T05:28:32;97094.66;;;1.85;87.12
39363;BME280;25088;43.238;23.110;2024-02-15T05:31:19;97113.50;;;2.00;87.09
39363;BME280;25088;43.238;23.110;2024-02-15T05:33:49;97109.59;;;2.02;86.70
39363;BME280;25088;43.238;23.110;2024-02-15T05:36:15;97112.53;;;2.07;86.28
39363;BME280;25088;43.238;23.110;2024-02-15T05:38:41;97106.53;;;2.05;85.80
39363;BME280;25088;43.238;23.110;2024-02-15T05:41:07;97093.41;;;2.02;85.04
39363;BME280;25088;43.238;23.110;2024-02-15T05:43:34;97113.47;;;2.15;85.32
39363;BME280;25088;43.238;23.110;2024-02-15T05:46:04;97109.50;;;2.11;85.37
39363;BME280;25088;43.238;23.110;2024-02-15T05:48:32;97120.53;;;2.16;85.50
39363;BME280;25088;43.238;23.110;2024-02-15T05:51:03;97128.94;;;2.27;84.67
39363;BME280;25088;43.238;23.110;2024-02-15T05:53:29;97118.06;;;2.36;83.44
39363;BME280;25088;43.238;23.110;2024-02-15T05:55:55;97126.25;;;2.27;83.68
39363;BME280;25088;43.238;23.110;2024-02-15T05:58:23;97132.09;;;2.46;82.36
39363;BME280;25088;43.238;23.110;2024-02-15T06:00:49;97108.50;;;2.33;82.56
39363;BME280;25088;43.238;23.110;2024-02-15T06:03:16;97125.84;;;2.45;82.60
39363;BME280;25088;43.238;23.110;2024-02-15T06:05:42;97120.94;;;2.49;81.39
39363;BME280;25088;43.238;23.110;2024-02-15T06:08:08;97131.16;;;2.96;79.48
39363;BME280;25088;43.238;23.110;2024-02-15T06:10:33;97128.09;;;3.49;76.83
39363;BME280;25088;43.238;23.110;2024-02-15T06:12:59;97140.47;;;3.99;74.56
39363;BME280;25088;43.238;23.110;2024-02-15T06:15:25;97128.56;;;4.35;71.43
39363;BME280;25088;43.238;23.110;2024-02-15T06:17:52;97141.81;;;4.78;69.42
39363;BME280;25088;43.238;23.110;2024-02-15T06:20:18;97147.31;;;5.17;67.96
39363;BME280;25088;43.238;23.110;2024-02-15T06:22:47;97133.81;;;5.37;66.54
39363;BME280;25088;43.238;23.110;2024-02-15T06:25:13;97132.31;;;5.41;65.35
39363;BME280;25088;43.238;23.110;2024-02-15T06:27:40;97130.25;;;5.50;65.34
39363;BME280;25088;43.238;23.110;2024-02-15T06:30:11;97145.44;;;5.78;64.30
39363;BME280;25088;43.238;23.110;2024-02-15T06:32:55;97131.47;;;5.74;63.92
39363;BME280;25088;43.238;23.110;2024-02-15T06:35:39;97142.50;;;5.79;62.93
39363;BME280;25088;43.238;23.110;2024-02-15T06:38:30;97143.31;;;6.06;62.82
39363;BME280;25088;43.238;23.110;2024-02-15T06:41:15;97126.53;;;6.42;61.62
39363;BME280;25088;43.238;23.110;2024-02-15T06:43:40;97128.13;;;6.63;59.51
39363;BME280;25088;43.238;23.110;2024-02-15T06:46:06;97139.94;;;7.14;58.55
39363;BME280;25088;43.238;23.110;2024-02-15T06:48:33;97133.53;;;7.58;57.04
39363;BME280;25088;43.238;23.110;2024-02-15T06:50:58;97143.66;;;7.94;56.75
39363;BME280;25088;43.238;23.110;2024-02-15T06:53:24;97142.75;;;8.44;54.54
39363;BME280;25088;43.238;23.110;2024-02-15T06:55:49;97128.31;;;8.62;53.15
39363;BME280;25088;43.238;23.110;2024-02-15T06:58:16;97132.72;;;8.93;52.78
39363;BME280;25088;43.238;23.110;2024-02-15T07:00:43;97143.66;;;9.04;52.13
39363;BME280;25088;43.238;23.110;2024-02-15T07:03:08;97128.13;;;9.35;50.67
39363;BME280;25088;43.238;23.110;2024-02-15T07:05:34;97121.50;;;9.31;49.51
39363;BME280;25088;43.238;23.110;2024-02-15T07:08:00;97122.13;;;9.56;49.64
39363;BME280;25088;43.238;23.110;2024-02-15T07:10:26;97107.31;;;9.64;49.31
39363;BME280;25088;43.238;23.110;2024-02-15T07:12:52;97126.31;;;9.82;48.74
39363;BME280;25088;43.238;23.110;2024-02-15T07:15:17;97119.06;;;10.12;50.03
39363;BME280;25088;43.238;23.110;2024-02-15T07:17:43;97129.28;;;10.16;48.85
39363;BME280;25088;43.238;23.110;2024-02-15T07:20:11;97117.34;;;10.69;46.58
39363;BME280;25088;43.238;23.110;2024-02-15T07:22:43;97124.81;;;11.02;47.29
39363;BME280;25088;43.238;23.110;2024-02-15T07:25:09;97102.56;;;11.56;44.48
39363;BME280;25088;43.238;23.110;2024-02-15T07:27:35;97105.72;;;11.98;42.36
39363;BME280;25088;43.238;23.110;2024-02-15T07:30:01;97107.63;;;12.36;41.22
39363;BME280;25088;43.238;23.110;2024-02-15T07:32:28;97104.59;;;12.55;39.50
39363;BME280;25088;43.238;23.110;2024-02-15T07:34:54;97085.16;;;12.56;39.48
39363;BME280;25088;43.238;23.110;2024-02-15T07:37:20;97098.94;;;12.83;39.87
39363;BME280;25088;43.238;23.110;2024-02-15T07:39:47;97093.63;;;12.99;40.01
39363;BME280;25088;43.238;23.110;2024-02-15T07:42:12;97089.63;;;13.33;39.31
39363;BME280;25088;43.238;23.110;2024-02-15T07:44:38;97086.34;;;13.63;39.18
39363;BME280;25088;43.238;23.110;2024-02-15T07:47:03;97078.94;;;13.64;37.76
39363;BME280;25088;43.238;23.110;2024-02-15T07:49:30;97083.97;;;13.77;37.75
39363;BME280;25088;43.238;23.110;2024-02-15T07:51:55;97080.47;;;13.87;37.00
39363;BME280;25088;43.238;23.110;2024-02-15T07:54:21;97073.25;;;14.13;36.97
39363;BME280;25088;43.238;23.110;2024-02-15T07:56:47;97080.28;;;13.99;36.96
39363;BME280;25088;43.238;23.110;2024-02-15T07:59:15;97084.94;;;13.93;36.78
39363;BME280;25088;43.238;23.110;2024-02-15T08:01:44;97081.75;;;14.11;37.24
39363;BME280;25088;43.238;23.110;2024-02-15T08:04:18;97082.72;;;14.32;37.87
39363;BME280;25088;43.238;23.110;2024-02-15T08:06:44;97077.25;;;14.37;36.82
39363;BME280;25088;43.238;23.110;2024-02-15T08:09:09;97080.69;;;14.65;35.56
39363;BME280;25088;43.238;23.110;2024-02-15T08:11:41;97079.63;;;14.76;35.03
39363;BME280;25088;43.238;23.110;2024-02-15T08:14:07;97075.03;;;14.92;35.17
39363;BME280;25088;43.238;23.110;2024-02-15T08:16:36;97068.97;;;14.95;36.19
39363;BME280;25088;43.238;23.110;2024-02-15T08:19:02;97069.84;;;15.16;35.14
39363;BME280;25088;43.238;23.110;2024-02-15T08:21:31;97061.38;;;15.33;34.34
39363;BME280;25088;43.238;23.110;2024-02-15T08:24:06;97056.69;;;15.33;34.61
39363;BME280;25088;43.238;23.110;2024-02-15T08:26:38;97058.06;;;15.46;34.29
39363;BME280;25088;43.238;23.110;2024-02-15T08:29:04;97070.50;;;15.64;34.44
39363;BME280;25088;43.238;23.110;2024-02-15T08:31:31;97071.31;;;15.80;34.59
39363;BME280;25088;43.238;23.110;2024-02-15T08:33:57;97060.88;;;15.66;33.42
39363;BME280;25088;43.238;23.110;2024-02-15T08:36:23;97068.84;;;15.78;33.60
39363;BME280;25088;43.238;23.110;2024-02-15T08:38:51;97060.84;;;16.07;34.31
39363;BME280;25088;43.238;23.110;2024-02-15T08:41:17;97061.59;;;16.38;33.56
39363;BME280;25088;43.238;23.110;2024-02-15T08:43:53;97061.25;;;16.60;33.23
39363;BME280;25088;43.238;23.110;2024-02-15T08:46:18;97043.63;;;16.61;33.46
39363;BME280;25088;43.238;23.110;2024-02-15T08:48:45;97045.50;;;16.81;32.25
39363;BME280;25088;43.238;23.110;2024-02-15T08:51:12;97064.69;;;17.01;32.95
39363;BME280;25088;43.238;23.110;2024-02-15T08:53:37;97063.72;;;17.26;32.65
39363;BME280;25088;43.238;23.110;2024-02-15T08:56:04;97050.28;;;17.10;32.42
39363;BME280;25088;43.238;23.110;2024-02-15T08:58:29;97027.66;;;17.13;31.73
39363;BME280;25088;43.238;23.110;2024-02-15T09:00:57;97056.63;;;17.54;30.70
39363;BME280;25088;43.238;23.110;2024-02-15T09:03:23;97044.56;;;17.40;31.89
39363;BME280;25088;43.238;23.110;2024-02-15T09:05:49;97051.16;;;17.44;31.70
39363;BME280;25088;43.238;23.110;2024-02-15T09:08:14;97056.63;;;17.54;31.66
39363;BME280;25088;43.238;23.110;2024-02-15T09:10:47;97056.03;;;17.18;31.44
39363;BME280;25088;43.238;23.110;2024-02-15T09:13:12;97062.94;;;17.21;32.72
39363;BME280;25088;43.238;23.110;2024-02-15T09:15:38;97044.97;;;17.23;31.88
39363;BME280;25088;43.238;23.110;2024-02-15T09:18:05;97066.94;;;17.39;31.60
39363;BME280;25088;43.238;23.110;2024-02-15T09:20:35;97052.88;;;17.35;32.07
39363;BME280;25088;43.238;23.110;2024-02-15T09:23:03;97059.84;;;17.67;31.43
39363;BME280;25088;43.238;23.110;2024-02-15T09:25:38;97064.50;;;17.76;31.09
39363;BME280;25088;43.238;23.110;2024-02-15T09:28:03;97060.53;;;17.88;31.67
39363;BME280;25088;43.238;23.110;2024-02-15T09:30:29;97050.56;;;17.92;31.18
39363;BME280;25088;43.238;23.110;2024-02-15T09:32:56;97062.81;;;18.09;31.12
39363;BME280;25088;43.238;23.110;2024-02-15T09:35:22;97058.84;;;17.92;31.81
39363;BME280;25088;43.238;23.110;2024-02-15T09:37:48;97063.19;;;18.27;31.02
39363;BME280;25088;43.238;23.110;2024-02-15T09:40:14;97053.00;;;18.51;31.10
39363;BME280;25088;43.238;23.110;2024-02-15T09:42:44;97048.06;;;18.72;30.10
39363;BME280;25088;43.238;23.110;2024-02-15T09:45:11;97050.41;;;18.84;29.94
39363;BME280;25088;43.238;23.110;2024-02-15T09:47:40;97058.91;;;19.11;29.52
39363;BME280;25088;43.238;23.110;2024-02-15T09:50:10;97052.00;;;19.09;29.21
39363;BME280;25088;43.238;23.110;2024-02-15T09:52:38;97052.06;;;18.85;29.67
39363;BME280;25088;43.238;23.110;2024-02-15T09:55:05;97052.19;;;18.75;30.63
39363;BME280;25088;43.238;23.110;2024-02-15T09:57:31;97049.94;;;18.77;30.02
39363;BME280;25088;43.238;23.110;2024-02-15T10:00:00;97030.47;;;19.06;30.17
39363;BME280;25088;43.238;23.110;2024-02-15T10:02:27;97038.19;;;19.28;29.71
39363;BME280;25088;43.238;23.110;2024-02-15T10:04:53;97025.97;;;19.48;29.16
39363;BME280;25088;43.238;23.110;2024-02-15T10:07:25;97022.78;;;19.59;28.81
39363;BME280;25088;43.238;23.110;2024-02-15T10:09:52;97030.84;;;19.75;28.88
39363;BME280;25088;43.238;23.110;2024-02-15T10:12:18;97022.97;;;19.82;28.96
39363;BME280;25088;43.238;23.110;2024-02-15T10:14:49;97018.59;;;19.95;28.79
39363;BME280;25088;43.238;23.110;2024-02-15T10:17:15;97027.19;;;19.93;28.58
39363;BME280;25088;43.238;23.110;2024-02-15T10:19:42;97016.97;;;20.07;28.86
39363;BME280;25088;43.238;23.110;2024-02-15T10:22:10;97011.78;;;19.87;28.70
39363;BME280;25088;43.238;23.110;2024-02-15T10:24:36;97023.28;;;19.80;28.59
39363;BME280;25088;43.238;23.110;2024-02-15T10:27:05;97011.38;;;19.80;28.56
39363;BME280;25088;43.238;23.110;2024-02-15T10:29:36;97002.50;;;20.10;28.51
39363;BME280;25088;43.238;23.110;2024-02-15T10:32:03;97007.91;;;20.02;28.75
39363;BME280;25088;43.238;23.110;2024-02-15T10:34:29;97001.88;;;20.13;28.81
39363;BME280;25088;43.238;23.110;2024-02-15T10:37:15;97008.31;;;19.62;29.13
39363;BME280;25088;43.238;23.110;2024-02-15T10:39:42;96998.00;;;19.49;29.40
39363;BME280;25088;43.238;23.110;2024-02-15T10:42:08;97007.88;;;19.74;29.39
39363;BME280;25088;43.238;23.110;2024-02-15T10:44:37;97002.38;;;20.02;28.75
39363;BME280;25088;43.238;23.110;2024-02-15T10:47:04;96996.97;;;19.78;28.39
39363;BME280;25088;43.238;23.110;2024-02-15T10:49:33;96999.47;;;19.93;28.35
39363;BME280;25088;43.238;23.110;2024-02-15T10:52:00;96990.44;;;19.87;28.41
39363;BME280;25088;43.238;23.110;2024-02-15T10:54:47;96995.31;;;20.23;28.66
39363;BME280;25088;43.238;23.110;2024-02-15T10:57:20;96993.28;;;20.29;28.21
39363;BME280;25088;43.238;23.110;2024-02-15T10:59:54;96986.03;;;20.60;28.46
39363;BME280;25088;43.238;23.110;2024-02-15T11:02:28;96982.94;;;20.62;28.27
39363;BME280;25088;43.238;23.110;2024-02-15T11:05:06;96990.53;;;20.84;27.72
39363;BME280;25088;43.238;23.110;2024-02-15T11:07:36;96978.78;;;21.01;27.26
39363;BME280;25088;43.238;23.110;2024-02-15T11:10:03;96977.50;;;20.71;27.88
39363;BME280;25088;43.238;23.110;2024-02-15T11:12:33;96973.25;;;20.87;27.64
39363;BME280;25088;43.238;23.110;2024-02-15T11:15:00;96975.06;;;21.05;27.45
39363;BME280;25088;43.238;23.110;2024-02-15T11:20:53;96959.06;;;21.25;26.99
39363;BME280;25088;43.238;23.110;2024-02-15T11:22:57;96974.75;;;21.43;26.80
39363;BME280;25088;43.238;23.110;2024-02-15T11:25:35;96970.91;;;21.53;26.92
39363;BME280;25088;43.238;23.110;2024-02-15T11:28:36;96968.56;;;21.46;26.48
39363;BME280;25088;43.238;23.110;2024-02-15T11:31:06;96966.91;;;21.67;26.63
39363;BME280;25088;43.238;23.110;2024-02-15T11:33:33;96964.00;;;21.73;26.36
39363;BME280;25088;43.238;23.110;2024-02-15T11:36:07;96961.13;;;20.83;27.16
39363;BME280;25088;43.238;23.110;2024-02-15T11:38:34;96973.25;;;21.23;26.85
39363;BME280;25088;43.238;23.110;2024-02-15T11:41:01;96968.25;;;20.61;27.72
39363;BME280;25088;43.238;23.110;2024-02-15T11:43:46;96959.16;;;20.83;27.85
39363;BME280;25088;43.238;23.110;2024-02-15T11:46:19;96955.75;;;21.36;27.33
39363;BME280;25088;43.238;23.110;2024-02-15T11:48:45;96955.25;;;21.57;26.58
39363;BME280;25088;43.238;23.110;2024-02-15T11:51:34;96955.50;;;22.00;25.78
39363;BME280;25088;43.238;23.110;2024-02-15T11:54:09;96961.66;;;22.11;25.39
39363;BME280;25088;43.238;23.110;2024-02-15T11:59:09;96957.44;;;22.22;26.03
39363;BME280;25088;43.238;23.110;2024-02-15T12:01:44;96955.59;;;22.57;25.52
39363;BME280;25088;43.238;23.110;2024-02-15T12:04:28;96951.38;;;22.60;25.63
39363;BME280;25088;43.238;23.110;2024-02-15T12:07:14;96956.97;;;22.77;25.69
39363;BME280;25088;43.238;23.110;2024-02-15T12:09:58;96956.75;;;22.56;25.89
39363;BME280;25088;43.238;23.110;2024-02-15T12:12:53;96957.81;;;22.29;25.61
39363;BME280;25088;43.238;23.110;2024-02-15T12:15:37;96950.72;;;22.63;24.98
39363;BME280;25088;43.238;23.110;2024-02-15T12:18:21;96953.59;;;23.06;25.13
39363;BME280;25088;43.238;23.110;2024-02-15T12:21:08;96953.13;;;23.04;25.36
39363;BME280;25088;43.238;23.110;2024-02-15T12:23:37;96952.31;;;23.12;25.07
39363;BME280;25088;43.238;23.110;2024-02-15T12:26:03;96947.38;;;23.01;24.99
39363;BME280;25088;43.238;23.110;2024-02-15T12:28:30;96948.13;;;22.75;25.27
39363;BME280;25088;43.238;23.110;2024-02-15T12:30:55;96929.16;;;22.86;25.18
39363;BME280;25088;43.238;23.110;2024-02-15T12:33:22;96941.78;;;22.92;25.30
39363;BME280;25088;43.238;23.110;2024-02-15T12:35:49;96924.72;;;22.85;25.10
39363;BME280;25088;43.238;23.110;2024-02-15T12:38:15;96936.91;;;23.24;24.37
39363;BME280;25088;43.238;23.110;2024-02-15T12:40:41;96925.91;;;23.36;24.56
39363;BME280;25088;43.238;23.110;2024-02-15T12:43:08;96925.28;;;23.47;24.19
39363;BME280;25088;43.238;23.110;2024-02-15T12:45:39;96925.28;;;23.39;24.65
39363;BME280;25088;43.238;23.110;2024-02-15T12:48:06;96921.00;;;22.01;25.64
39363;BME280;25088;43.238;23.110;2024-02-15T12:50:32;96911.81;;;20.80;27.09
39363;BME280;25088;43.238;23.110;2024-02-15T12:52:58;96915.56;;;20.48;27.09
39363;BME280;25088;43.238;23.110;2024-02-15T12:55:37;96929.91;;;21.13;27.04
39363;BME280;25088;43.238;23.110;2024-02-15T12:58:12;96908.44;;;21.73;25.93
39363;BME280;25088;43.238;23.110;2024-02-15T13:00:39;96920.69;;;22.03;25.80
39363;BME280;25088;43.238;23.110;2024-02-15T13:03:06;96927.84;;;21.64;25.80
39363;BME280;25088;43.238;23.110;2024-02-15T13:05:37;96928.56;;;20.75;26.71